Aviation Digital Data Service (ADDS)

Output produced by METARs form (1707 UTC 24 May 2015)
found at http://www.aviationweather.gov/adds/metars/
 
KSEG 241653Z AUTO 21005KT 10SM CLR 25/09 A3032 RMK AO2 SLP266 T02500089
KSEG 241553Z AUTO VRB05KT 10SM CLR 23/09 A3034 RMK AO2 SLP272 T02280094
KSEG 241453Z AUTO VRB04KT 10SM CLR 21/09 A3036 RMK AO2 SLP279 T02060089 58013
KSEG 241353Z AUTO VRB05KT 10SM CLR 17/08 A3038 RMK AO2 SLP287 T01720078
KSEG 241253Z AUTO 00000KT 10SM CLR 14/07 A3039 RMK AO2 SLP292 T01390072
KSEG 241153Z AUTO 00000KT 10SM CLR 10/08 A3039 RMK AO2 SLP292 T01000078 10100 20039 53013
KSEG 241053Z AUTO 00000KT 10SM CLR 06/05 A3038 RMK AO2 SLP286 T00610050
KSEG 240953Z AUTO 00000KT 7SM CLR 04/03 A3037 RMK AO2 SLP285 T00440033
KSEG 240853Z AUTO 00000KT 9SM CLR 04/04 A3036 RMK AO2 SLP281 T00440039 58002
KSEG 240753Z AUTO 00000KT 10SM CLR 05/04 A3036 RMK AO2 SLP280 T00500039
KSEG 240653Z AUTO 00000KT 10SM CLR 04/04 A3037 RMK AO2 SLP285 T00440039
KSEG 240553Z AUTO 00000KT 10SM CLR 06/04 A3036 RMK AO2 SLP282 T00560044 10183 20056 50002
KSEG 240453Z AUTO 00000KT 10SM CLR 07/05 A3036 RMK AO2 SLP283 T00670050 402170017
KSEG 240353Z AUTO 00000KT 10SM CLR 07/06 A3036 RMK AO2 SLP282 T00720056
KSEG 240253Z AUTO 00000KT 10SM CLR 08/06 A3036 RMK AO2 SLP281 T00830056 53010
KSEG 240153Z AUTO 00000KT 10SM CLR 10/06 A3034 RMK AO2 SLP276 T01000056
KSEG 240053Z AUTO 00000KT 10SM CLR 13/06 A3033 RMK AO2 SLP271 T01280061
KSEG 232353Z AUTO 18004KT 10SM CLR 18/02 A3033 RMK AO2 SLP269 T01780022 10217 20178 56011
KSEG 232253Z AUTO VRB03KT 10SM CLR 21/01 A3034 RMK AO2 SLP273 T02060006
KSEG 232153Z AUTO 14005KT 10SM CLR 21/01 A3035 RMK AO2 SLP276 T02110006
KSEG 232053Z AUTO VRB06KT 10SM CLR 21/01 A3036 RMK AO2 SLP282 T02110006 56020
KSEG 231953Z AUTO VRB06KT 10SM CLR 21/02 A3037 RMK AO2 SLP285 T02110017
KSEG 231853Z AUTO VRB05KT 10SM CLR 20/00 A3040 RMK AO2 SLP293 T02000000
KSEG 231753Z AUTO 00000KT 10SM CLR 18/M01 A3042 RMK AO2 SLP301 T01781011 10183 20089 58017
KSEG 231653Z AUTO VRB03KT 10SM CLR 17/01 A3044 RMK AO2 SLP307 T01670006
KSEG 231553Z AUTO 10SM CLR 14/M02 A3046 RMK AO2 SLP315 T01391022
KSEG 231453Z AUTO 05004KT 10SM CLR 13/M02 A3047 RMK AO2 SLP318 T01281022 50004
KSEG 231353Z AUTO 33004KT 8SM CLR 12/M03 A3047 RMK AO2 SLP319 T01171028
KSEG 231253Z AUTO 00000KT 10SM CLR 11/M01 A3047 RMK AO2 SLP318 T01061011
KSEG 231153Z AUTO 34005KT 10SM CLR 09/M01 A3046 RMK AO2 SLP314 70001 T00891011 10089 20017 53031
KSEG 231053Z AUTO 33003KT 10SM CLR 06/00 A3043 RMK AO2 SLP304 T00610000
KSEG 230953Z AUTO 00000KT 10SM CLR 03/M01 A3039 RMK AO2 SLP292 T00281006
KSEG 230853Z AUTO 33003KT 10SM CLR 04/M02 A3036 RMK AO2 SLP283 T00441017 53024
KSEG 230753Z AUTO 00000KT 10SM CLR 05/M02 A3034 RMK AO2 SLP274 T00501022
KSEG 230653Z AUTO 29004KT 10SM CLR 08/M04 A3032 RMK AO2 SLP266 T00781039
KSEG 230553Z AUTO 29004KT 10SM CLR 08/M03 A3029 RMK AO2 SLP258 T00831033 10183 20083 51021